Time;durP1;ratioP1;P1;durP2;ratioP2;P2;SDS_P1;SDS_P2;PMS_P1;PMS_P2;Temp;Humidity;BMP_temperature;BMP_pressure;BME280_temperature;BME280_humidity;BME280_pressure;Samples;Min_cycle;Max_cycle;Signal;HPM_P1;HPM_P2
2023/09/24 00:00:57;;;;;;;6.30;3.20;;;12.80;99.90;;;;;;5091491;28;20031;-65
2023/09/24 00:03:23;;;;;;;5.15;3.38;;;12.90;99.90;;;;;;5090777;28;20553;-65
2023/09/24 00:05:49;;;;;;;7.43;3.40;;;12.90;99.90;;;;;;5091609;28;20039;-65
2023/09/24 00:08:15;;;;;;;8.52;3.25;;;13.10;99.90;;;;;;5091569;28;20044;-65
2023/09/24 00:10:40;;;;;;;4.57;3.15;;;13.20;99.90;;;;;;5091331;28;20032;-65
2023/09/24 00:13:06;;;;;;;5.95;3.17;;;13.30;99.90;;;;;;5091111;28;20024;-65
2023/09/24 00:15:35;;;;;;;5.32;3.40;;;13.40;99.90;;;;;;5091158;28;20558;-65
2023/09/24 00:18:01;;;;;;;9.48;3.25;;;13.50;99.90;;;;;;5091166;28;20494;-65
2023/09/24 00:20:26;;;;;;;6.85;3.28;;;13.50;99.90;;;;;;5091010;28;20028;-65
2023/09/24 00:22:52;;;;;;;4.95;3.40;;;13.50;99.90;;;;;;5091036;28;20055;-65
2023/09/24 00:25:18;;;;;;;5.30;3.25;;;13.50;99.90;;;;;;5091441;28;20040;-65
2023/09/24 00:27:44;;;;;;;5.50;2.90;;;13.50;99.90;;;;;;5091029;28;20070;-65
2023/09/24 00:30:13;;;;;;;5.65;2.85;;;13.50;99.90;;;;;;5090907;28;20026;-65
2023/09/24 00:32:39;;;;;;;7.28;2.95;;;13.50;99.90;;;;;;5090681;28;20024;-64
2023/09/24 00:35:05;;;;;;;5.82;3.15;;;13.40;99.90;;;;;;5072906;28;20028;-65
2023/09/24 00:37:32;;;;;;;5.43;3.50;;;13.30;99.90;;;;;;5091047;28;20048;-65
2023/09/24 00:39:58;;;;;;;6.50;3.15;;;13.10;99.90;;;;;;5091313;28;20125;-65
2023/09/24 00:42:27;;;;;;;5.80;3.30;;;12.90;99.90;;;;;;5091028;28;20103;-65
2023/09/24 00:44:53;;;;;;;5.78;3.22;;;12.80;99.90;;;;;;5090849;28;20512;-64
2023/09/24 00:47:19;;;;;;;5.90;3.63;;;12.70;99.90;;;;;;5090702;28;20052;-65
2023/09/24 00:49:46;;;;;;;8.13;2.85;;;12.60;99.90;;;;;;5090945;28;20071;-64
2023/09/24 00:52:13;;;;;;;6.35;3.08;;;12.50;99.90;;;;;;5090790;28;20513;-64
2023/09/24 00:54:40;;;;;;;5.82;3.40;;;12.60;99.90;;;;;;5091483;28;20032;-64
2023/09/24 00:57:06;;;;;;;5.78;3.28;;;12.50;99.90;;;;;;5089502;28;20498;-65
2023/09/24 00:59:32;;;;;;;4.68;3.22;;;12.50;99.90;;;;;;5090644;28;20024;-65
2023/09/24 01:01:58;;;;;;;8.68;3.30;;;12.50;99.90;;;;;;5090278;28;20024;-65
2023/09/24 01:04:24;;;;;;;6.30;3.42;;;12.50;99.90;;;;;;5090657;28;20119;-66
2023/09/24 01:06:50;;;;;;;6.88;3.20;;;12.50;99.90;;;;;;5090550;28;20166;-65
2023/09/24 01:09:22;;;;;;;7.15;3.80;;;12.50;99.90;;;;;;5093826;28;20035;-65
2023/09/24 01:11:52;;;;;;;6.93;3.50;;;12.40;99.90;;;;;;5094250;28;20521;-65
2023/09/24 01:14:18;;;;;;;6.95;3.60;;;12.40;99.90;;;;;;5094282;28;20436;-65
2023/09/24 01:16:45;;;;;;;10.63;3.70;;;12.40;99.90;;;;;;5094289;28;20077;-65
2023/09/24 01:19:10;;;;;;;7.30;3.53;;;12.30;99.90;;;;;;5094222;28;20031;-65
2023/09/24 01:21:37;;;;;;;7.95;3.47;;;12.30;99.90;;;;;;5094037;28;20498;-65
2023/09/24 01:24:04;;;;;;;6.95;3.65;;;12.30;99.90;;;;;;5094424;28;20040;-65
2023/09/24 01:26:29;;;;;;;4.63;3.20;;;12.30;99.90;;;;;;5094088;28;20020;-65
2023/09/24 01:28:57;;;;;;;8.35;3.58;;;12.30;99.90;;;;;;5094168;28;20042;-65
2023/09/24 01:31:26;;;;;;;8.13;3.67;;;12.30;99.90;;;;;;5093626;28;20226;-65
2023/09/24 01:33:52;;;;;;;7.40;3.35;;;12.30;99.90;;;;;;5093962;28;20494;-65
2023/09/24 01:36:20;;;;;;;5.40;3.70;;;12.30;99.90;;;;;;5093769;28;20027;-65
2023/09/24 01:38:47;;;;;;;5.82;3.30;;;12.30;99.90;;;;;;5093923;28;20511;-64
2023/09/24 01:41:13;;;;;;;7.00;3.70;;;12.30;99.90;;;;;;5093861;28;20514;-65
2023/09/24 01:43:42;;;;;;;6.40;2.95;;;12.50;99.90;;;;;;5093723;28;20066;-65
2023/09/24 01:46:09;;;;;;;6.93;3.67;;;12.70;99.90;;;;;;5093407;28;20032;-65
2023/09/24 01:48:37;;;;;;;5.13;3.47;;;12.70;99.90;;;;;;5094026;28;20024;-65
2023/09/24 01:51:12;;;;;;;7.80;3.58;;;12.80;99.90;;;;;;5093773;28;20077;-64
2023/09/24 01:53:38;;;;;;;6.15;3.63;;;12.90;99.90;;;;;;5093631;28;20028;-65
2023/09/24 01:56:07;;;;;;;6.28;4.03;;;12.80;99.90;;;;;;5093583;28;20032;-65
2023/09/24 01:58:33;;;;;;;5.38;3.75;;;12.80;99.90;;;;;;5093260;28;20499;-65
2023/09/24 02:01:02;;;;;;;5.35;3.67;;;12.80;99.90;;;;;;5093125;28;20112;-64
2023/09/24 02:03:28;;;;;;;7.15;4.13;;;12.90;99.90;;;;;;5093590;28;20114;-65
2023/09/24 02:05:53;;;;;;;7.20;3.63;;;13.00;99.90;;;;;;5093377;28;20097;-65
2023/09/24 02:08:19;;;;;;;5.28;4.00;;;12.90;99.90;;;;;;5093267;28;20502;-65
2023/09/24 02:10:45;;;;;;;5.68;3.90;;;12.80;99.90;;;;;;5092051;28;20562;-65
2023/09/24 02:13:12;;;;;;;6.18;4.00;;;12.70;99.90;;;;;;5093513;28;20486;-65
2023/09/24 02:15:46;;;;;;;5.72;3.90;;;12.40;99.90;;;;;;5092932;28;20055;-64
2023/09/24 02:18:12;;;;;;;7.43;3.75;;;12.30;99.90;;;;;;5093215;28;20051;-65
2023/09/24 02:20:41;;;;;;;7.43;4.18;;;12.20;99.90;;;;;;5092839;28;20099;-65
2023/09/24 02:23:08;;;;;;;7.32;4.10;;;12.20;99.90;;;;;;5092762;28;20044;-65
2023/09/24 02:25:36;;;;;;;7.30;3.92;;;12.10;99.90;;;;;;5092753;28;20035;-65
2023/09/24 02:28:03;;;;;;;7.25;4.22;;;12.10;99.90;;;;;;5093105;28;20088;-64
2023/09/24 02:30:29;;;;;;;6.38;4.40;;;12.00;99.90;;;;;;5092825;28;20539;-65
2023/09/24 02:33:04;;;;;;;5.85;4.20;;;12.10;99.90;;;;;;5092793;28;20490;-65
2023/09/24 02:35:30;;;;;;;8.77;4.65;;;12.00;99.90;;;;;;5092798;28;20036;-63
2023/09/24 02:37:56;;;;;;;6.70;4.13;;;11.90;99.90;;;;;;5092651;28;20447;-65
2023/09/24 02:40:23;;;;;;;8.73;4.65;;;11.90;99.90;;;;;;5093002;28;20425;-65
2023/09/24 02:42:55;;;;;;;7.22;4.30;;;11.90;99.90;;;;;;5092293;28;20024;-65
2023/09/24 02:45:21;;;;;;;6.65;4.30;;;11.80;99.90;;;;;;5092501;28;20029;-65
2023/09/24 02:47:50;;;;;;;5.80;4.15;;;11.90;99.90;;;;;;5092605;28;20115;-65
2023/09/24 02:50:17;;;;;;;4.85;4.20;;;11.90;99.90;;;;;;5092441;28;20107;-65
2023/09/24 02:52:45;;;;;;;6.75;4.30;;;11.80;99.90;;;;;;5092635;28;20020;-65
2023/09/24 02:55:13;;;;;;;8.20;4.32;;;11.80;99.90;;;;;;5092409;28;20128;-65
2023/09/24 02:57:39;;;;;;;7.22;4.20;;;11.70;99.90;;;;;;5090722;28;20101;-65
2023/09/24 03:00:15;;;;;;;6.90;4.60;;;11.70;99.90;;;;;;5092236;28;20853;-65
2023/09/24 03:02:41;;;;;;;8.80;4.50;;;11.70;99.90;;;;;;5092519;28;20023;-65
2023/09/24 03:05:12;;;;;;;8.90;5.10;;;11.60;99.90;;;;;;5092220;28;20413;-65
2023/09/24 03:07:40;;;;;;;6.72;4.75;;;11.60;99.90;;;;;;5092073;28;20047;-65
2023/09/24 03:10:10;;;;;;;10.50;4.10;;;11.60;99.90;;;;;;5092076;28;20465;-64
2023/09/24 03:12:37;;;;;;;5.57;4.47;;;11.60;99.90;;;;;;5092130;28;20061;-65
2023/09/24 03:15:03;;;;;;;7.68;4.85;;;11.50;99.90;;;;;;5092034;28;20486;-64
2023/09/24 03:17:28;;;;;;;5.85;4.40;;;11.60;99.90;;;;;;5090615;28;20028;-64
2023/09/24 03:19:54;;;;;;;8.05;4.60;;;11.70;99.90;;;;;;5091951;28;20034;-64
2023/09/24 03:22:21;;;;;;;6.68;4.35;;;12.00;99.90;;;;;;5091776;28;20016;-65
2023/09/24 03:24:50;;;;;;;6.63;4.20;;;12.10;99.90;;;;;;5092040;28;20044;-65
2023/09/24 03:27:16;;;;;;;7.57;4.35;;;12.10;99.90;;;;;;5091503;28;20102;-64
2023/09/24 03:29:45;;;;;;;6.68;4.50;;;12.20;99.90;;;;;;5091830;28;20120;-65
2023/09/24 03:32:11;;;;;;;5.80;4.03;;;12.30;99.90;;;;;;5091039;28;20505;-65
2023/09/24 03:34:38;;;;;;;9.55;4.15;;;12.30;99.90;;;;;;5092046;28;20023;-64
2023/09/24 03:37:06;;;;;;;6.32;3.60;;;12.30;99.90;;;;;;5091851;28;20444;-65
2023/09/24 03:39:32;;;;;;;6.88;4.28;;;12.20;99.90;;;;;;5091510;28;20032;-65
2023/09/24 03:41:58;;;;;;;6.75;4.55;;;12.20;99.90;;;;;;5091206;28;20375;-64
2023/09/24 03:44:23;;;;;;;8.52;4.78;;;12.30;99.90;;;;;;5091523;28;20078;-64
2023/09/24 03:46:49;;;;;;;5.75;4.32;;;12.30;99.90;;;;;;5091642;28;20062;-64
2023/09/24 03:49:14;;;;;;;7.03;4.75;;;12.10;99.90;;;;;;5091355;28;20062;-64
2023/09/24 03:51:40;;;;;;;8.55;5.43;;;12.00;99.90;;;;;;5091508;28;20024;-64
2023/09/24 03:54:06;;;;;;;8.77;5.13;;;11.90;99.90;;;;;;5091736;28;20028;-64
2023/09/24 03:56:32;;;;;;;5.65;4.72;;;11.80;99.90;;;;;;5091088;28;20046;-64
2023/09/24 03:58:57;;;;;;;9.20;5.38;;;11.60;99.90;;;;;;5091491;28;20111;-64
2023/09/24 04:01:23;;;;;;;8.27;4.55;;;11.60;99.90;;;;;;5091640;28;20513;-64
2023/09/24 04:03:49;;;;;;;8.82;4.82;;;11.50;99.90;;;;;;5091202;28;20036;-64
2023/09/24 04:06:16;;;;;;;7.65;5.10;;;11.50;99.90;;;;;;5091467;28;20390;-64
2023/09/24 04:08:42;;;;;;;8.27;5.55;;;11.40;99.90;;;;;;5091290;28;20043;-64
2023/09/24 04:11:11;;;;;;;8.90;5.10;;;11.40;99.90;;;;;;5091292;28;20390;-64
2023/09/24 04:13:38;;;;;;;7.88;4.97;;;11.40;99.90;;;;;;5091274;28;20076;-64
2023/09/24 04:16:15;;;;;;;6.80;4.80;;;11.40;99.90;;;;;;5091166;28;20040;-63
2023/09/24 04:18:44;;;;;;;7.60;5.07;;;11.30;99.90;;;;;;5091124;28;20035;-64
2023/09/24 04:21:17;;;;;;;7.95;4.93;;;11.30;99.90;;;;;;5091606;28;20020;-65
2023/09/24 04:23:44;;;;;;;;;;;11.20;99.90;;;;;;5091115;28;20097;-65
2023/09/24 04:26:23;;;;;;;8.35;5.28;;;11.30;99.90;;;;;;5090975;28;19904;-64
2023/09/24 04:28:54;;;;;;;8.45;4.97;;;11.30;99.90;;;;;;5091197;28;20065;-64
2023/09/24 04:31:19;;;;;;;8.10;4.88;;;11.30;99.90;;;;;;5090970;28;20039;-64
2023/09/24 04:33:47;;;;;;;8.63;5.20;;;11.20;99.90;;;;;;5090892;28;20024;-64
2023/09/24 04:36:13;;;;;;;7.53;4.50;;;11.20;99.90;;;;;;5091378;28;20034;-64
2023/09/24 04:38:41;;;;;;;9.35;4.70;;;11.20;99.90;;;;;;5090502;28;20541;-64
2023/09/24 04:41:07;;;;;;;6.15;4.70;;;11.20;99.90;;;;;;5090923;28;20031;-64
2023/09/24 04:43:35;;;;;;;8.10;4.93;;;11.20;99.90;;;;;;5094257;28;20393;-64
2023/09/24 04:46:04;;;;;;;10.98;4.68;;;11.10;99.90;;;;;;5095341;28;20130;-64
2023/09/24 04:48:32;;;;;;;10.38;5.15;;;11.00;99.90;;;;;;5094894;28;20020;-64
2023/09/24 04:50:58;;;;;;;6.53;4.90;;;11.00;99.90;;;;;;5094792;28;20039;-64
2023/09/24 04:53:24;;;;;;;9.10;5.15;;;11.00;99.90;;;;;;5094434;28;20032;-64
2023/09/24 04:55:49;;;;;;;9.70;5.05;;;11.10;99.90;;;;;;5094707;28;20052;-64
2023/09/24 04:58:15;;;;;;;8.23;4.60;;;11.20;99.90;;;;;;5095144;28;20020;-65
2023/09/24 05:00:41;;;;;;;7.43;4.70;;;11.40;99.90;;;;;;5094399;28;20020;-64
2023/09/24 05:03:07;;;;;;;8.52;5.07;;;11.60;99.90;;;;;;5094364;28;20436;-65
2023/09/24 05:05:33;;;;;;;9.05;4.47;;;11.70;99.90;;;;;;5094569;28;20041;-64
2023/09/24 05:08:00;;;;;;;11.15;4.43;;;11.80;99.90;;;;;;5094098;28;20081;-64
2023/09/24 05:10:26;;;;;;;7.22;4.22;;;11.80;99.90;;;;;;5094258;28;20383;-64
2023/09/24 05:12:52;;;;;;;5.63;4.20;;;11.80;99.90;;;;;;5094789;28;20042;-64
2023/09/24 05:15:17;;;;;;;6.65;4.68;;;11.80;99.90;;;;;;5094284;28;20036;-65
2023/09/24 05:17:43;;;;;;;7.70;4.13;;;11.80;99.90;;;;;;5094417;28;20058;-64
2023/09/24 05:20:10;;;;;;;5.85;4.10;;;11.90;99.90;;;;;;5094176;28;20457;-63
2023/09/24 05:22:36;;;;;;;7.15;4.03;;;11.90;99.90;;;;;;5093727;28;20394;-64
2023/09/24 05:25:02;;;;;;;8.25;3.70;;;11.90;99.90;;;;;;5094186;28;20044;-64
2023/09/24 05:27:29;;;;;;;8.70;4.78;;;11.80;99.90;;;;;;5094401;28;20100;-64
2023/09/24 05:29:55;;;;;;;6.45;3.50;;;11.50;99.90;;;;;;5094087;28;20410;-64
2023/09/24 05:32:21;;;;;;;8.05;4.45;;;11.30;99.90;;;;;;5075852;28;20027;-64
2023/09/24 05:34:52;;;;;;;5.90;4.18;;;11.20;99.90;;;;;;5093872;28;20494;-64
2023/09/24 05:37:18;;;;;;;7.40;4.18;;;11.10;99.90;;;;;;5093531;28;20020;-65
2023/09/24 05:39:43;;;;;;;6.43;4.15;;;11.10;99.90;;;;;;5094527;28;20024;-65
2023/09/24 05:42:09;;;;;;;7.22;4.40;;;11.10;99.90;;;;;;5094016;28;20459;-64
2023/09/24 05:44:35;;;;;;;6.10;4.30;;;11.00;99.90;;;;;;5092277;28;20040;-64
2023/09/24 05:47:01;;;;;;;6.53;4.20;;;10.90;99.90;;;;;;5093955;28;20048;-64
2023/09/24 05:49:27;;;;;;;7.10;4.13;;;10.90;99.90;;;;;;5093582;28;20115;-65
2023/09/24 05:51:53;;;;;;;6.85;4.20;;;10.80;99.90;;;;;;5093333;28;20099;-64
2023/09/24 05:54:18;;;;;;;7.97;4.72;;;10.90;99.90;;;;;;5092608;28;20466;-64
2023/09/24 05:56:44;;;;;;;8.45;4.80;;;10.80;99.90;;;;;;5092759;28;20020;-65
2023/09/24 05:59:10;;;;;;;9.50;4.38;;;10.80;99.90;;;;;;5093500;28;20028;-63
2023/09/24 06:01:35;;;;;;;12.32;4.82;;;10.80;99.90;;;;;;5093311;28;20027;-64
2023/09/24 06:04:01;;;;;;;6.28;4.30;;;10.80;99.90;;;;;;5093257;28;20117;-64
2023/09/24 06:06:27;;;;;;;8.10;4.65;;;10.80;99.90;;;;;;5093157;28;20028;-64
2023/09/24 06:08:55;;;;;;;10.10;4.47;;;10.80;99.90;;;;;;5093465;28;20059;-65
2023/09/24 06:11:21;;;;;;;6.65;4.28;;;10.80;99.90;;;;;;5093216;28;20020;-64
2023/09/24 06:13:47;;;;;;;7.90;4.20;;;10.80;99.90;;;;;;5093148;28;20102;-64
2023/09/24 06:16:12;;;;;;;10.27;4.50;;;10.80;99.90;;;;;;5093427;28;20099;-64
2023/09/24 06:18:38;;;;;;;7.60;4.13;;;10.80;99.90;;;;;;5093054;28;20024;-64
2023/09/24 06:21:04;;;;;;;8.05;4.03;;;10.80;99.90;;;;;;5092850;28;20016;-64
2023/09/24 06:23:30;;;;;;;10.73;4.53;;;10.80;99.90;;;;;;5093009;28;20048;-65
2023/09/24 06:25:57;;;;;;;7.07;4.22;;;10.80;99.90;;;;;;5093269;28;20116;-65
2023/09/24 06:28:24;;;;;;;6.20;3.97;;;10.90;99.90;;;;;;5093118;28;20421;-64
2023/09/24 06:31:01;;;;;;;7.63;3.95;;;10.90;99.90;;;;;;5092671;28;20498;-64
2023/09/24 06:33:27;;;;;;;8.77;4.00;;;10.90;99.90;;;;;;5092892;28;20421;-65
2023/09/24 06:35:54;;;;;;;6.82;4.07;;;10.90;99.90;;;;;;5092690;28;20477;-64
2023/09/24 06:38:19;;;;;;;5.15;3.53;;;11.00;99.90;;;;;;5092981;28;20016;-65
2023/09/24 06:40:45;;;;;;;7.82;3.63;;;11.30;99.90;;;;;;5093156;28;20020;-64
2023/09/24 06:43:10;;;;;;;6.50;3.75;;;11.50;99.90;;;;;;5092552;28;20024;-64
2023/09/24 06:45:36;;;;;;;7.28;3.40;;;11.70;99.90;;;;;;5092775;28;20028;-64
2023/09/24 06:48:03;;;;;;;6.93;3.55;;;11.80;99.90;;;;;;5091208;28;20521;-65
2023/09/24 06:50:28;;;;;;;6.63;3.60;;;11.90;99.90;;;;;;5092037;28;20095;-64
2023/09/24 06:52:54;;;;;;;5.13;3.50;;;11.90;99.90;;;;;;5092321;28;20027;-65
2023/09/24 06:55:20;;;;;;;6.03;3.55;;;12.00;99.90;;;;;;5092893;28;20035;-64
2023/09/24 06:57:46;;;;;;;5.20;3.50;;;12.20;99.90;;;;;;5092352;28;20058;-64
2023/09/24 07:00:12;;;;;;;6.60;3.60;;;12.20;99.90;;;;;;5092307;28;20111;-65
2023/09/24 07:02:38;;;;;;;6.00;3.63;;;12.30;99.90;;;;;;5091883;28;20091;-64
2023/09/24 07:05:05;;;;;;;5.93;3.60;;;12.40;99.90;;;;;;5091708;28;20508;-65
2023/09/24 07:07:31;;;;;;;5.70;3.80;;;12.40;99.90;;;;;;5091593;28;20047;-64
2023/09/24 07:09:59;;;;;;;6.25;3.58;;;12.30;99.90;;;;;;5092304;28;20032;-65
2023/09/24 07:12:26;;;;;;;4.70;3.33;;;12.20;99.90;;;;;;5092153;28;20031;-63
2023/09/24 07:14:51;;;;;;;7.45;3.65;;;12.20;99.90;;;;;;5092080;28;20084;-63
2023/09/24 07:17:17;;;;;;;6.13;3.75;;;12.20;99.90;;;;;;5092062;28;20024;-64
2023/09/24 07:19:43;;;;;;;6.22;3.50;;;12.10;99.90;;;;;;5092085;28;20028;-65
2023/09/24 07:22:08;;;;;;;6.65;3.80;;;12.10;99.90;;;;;;5091740;28;20372;-65
2023/09/24 07:24:34;;;;;;;5.13;3.53;;;12.10;99.90;;;;;;5091780;28;20036;-66
2023/09/24 07:27:02;;;;;;;5.35;3.25;;;12.10;99.90;;;;;;5091906;28;20024;-65
2023/09/24 07:29:30;;;;;;;4.57;3.30;;;12.20;99.90;;;;;;5092221;28;20024;-64
2023/09/24 07:31:56;;;;;;;5.13;3.20;;;12.30;99.90;;;;;;5091658;28;20035;-64
2023/09/24 07:34:23;;;;;;;6.07;3.03;;;12.50;99.90;;;;;;5090094;28;20036;-66
2023/09/24 07:36:48;;;;;;;5.90;3.47;;;12.80;99.90;;;;;;5091637;28;20016;-67
2023/09/24 07:39:14;;;;;;;6.25;3.30;;;13.10;99.90;;;;;;5091503;28;20409;-65
2023/09/24 07:41:40;;;;;;;6.53;3.40;;;13.20;99.90;;;;;;5091632;28;20077;-64
2023/09/24 07:44:06;;;;;;;4.93;3.35;;;13.20;99.90;;;;;;5090183;28;20048;-66
2023/09/24 07:46:32;;;;;;;5.60;3.00;;;13.30;99.90;;;;;;5091796;28;20452;-66
2023/09/24 07:48:58;;;;;;;4.97;3.28;;;13.50;99.90;;;;;;5091069;28;20034;-65
2023/09/24 07:51:24;;;;;;;7.97;3.47;;;13.70;99.90;;;;;;5091524;28;20051;-65
2023/09/24 07:53:50;;;;;;;5.30;3.17;;;13.80;99.90;;;;;;5091117;28;20067;-65
2023/09/24 07:56:17;;;;;;;6.47;3.17;;;14.00;99.90;;;;;;5091412;28;20050;-63
2023/09/24 07:58:43;;;;;;;5.30;3.30;;;14.00;99.90;;;;;;5091102;28;20024;-63
2023/09/24 08:01:14;;;;;;;4.93;3.15;;;14.00;99.90;;;;;;5089748;28;20115;-64
2023/09/24 08:03:41;;;;;;;5.85;3.40;;;14.00;99.90;;;;;;5090692;28;20097;-65
2023/09/24 08:06:07;;;;;;;5.63;3.20;;;14.00;99.90;;;;;;5090949;28;20023;-67
2023/09/24 08:08:37;;;;;;;5.13;2.92;;;14.00;99.90;;;;;;5091032;28;20469;-65
2023/09/24 08:11:03;;;;;;;6.03;3.03;;;14.30;99.90;;;;;;5091614;28;20097;-64
2023/09/24 08:13:29;;;;;;;7.00;3.38;;;14.70;99.90;;;;;;5090766;28;20494;-64
2023/09/24 08:15:56;;;;;;;4.15;2.95;;;14.90;99.90;;;;;;5091274;28;20521;-65
2023/09/24 08:18:23;;;;;;;6.10;3.00;;;14.80;99.90;;;;;;5090747;28;20032;-64
2023/09/24 08:20:49;;;;;;;7.88;3.65;;;14.80;99.90;;;;;;5091069;28;20089;-64
2023/09/24 08:23:15;;;;;;;6.57;3.60;;;15.00;99.90;;;;;;5090637;28;20089;-65
2023/09/24 08:25:41;;;;;;;7.90;3.22;;;15.30;99.90;;;;;;5091177;28;20028;-64
2023/09/24 08:28:08;;;;;;;8.68;3.10;;;15.60;99.90;;;;;;5090813;28;20027;-64
2023/09/24 08:30:34;;;;;;;7.55;3.28;;;15.50;99.90;;;;;;5090797;28;20035;-63
2023/09/24 08:33:00;;;;;;;5.85;3.53;;;15.40;99.90;;;;;;5090651;28;20020;-65
2023/09/24 08:35:26;;;;;;;5.30;3.65;;;15.50;99.90;;;;;;5090914;28;20040;-66
2023/09/24 08:37:52;;;;;;;7.25;3.80;;;15.50;99.90;;;;;;5090805;28;20031;-64
2023/09/24 08:40:18;;;;;;;8.20;3.58;;;15.60;99.90;;;;;;5091315;28;20032;-65
2023/09/24 08:42:50;;;;;;;4.90;3.25;;;15.80;99.90;;;;;;5090827;28;20089;-65
2023/09/24 08:45:19;;;;;;;5.15;3.33;;;15.90;99.90;;;;;;5090639;28;20063;-64
2023/09/24 08:47:46;;;;;;;5.50;3.45;;;16.00;99.90;;;;;;5090884;28;20514;-66
2023/09/24 08:50:13;;;;;;;6.40;3.50;;;15.90;99.90;;;;;;5091228;28;20067;-65
2023/09/24 08:52:40;;;;;;;5.20;3.58;;;15.80;99.90;;;;;;5090810;28;20024;-64
2023/09/24 08:55:10;;;;;;;6.07;3.50;;;15.80;99.90;;;;;;5090832;28;20028;-66
2023/09/24 08:57:42;;;;;;;5.40;3.05;;;15.70;99.90;;;;;;5090499;28;20055;-65
2023/09/24 09:00:10;;;;;;;6.55;3.50;;;15.70;99.90;;;;;;5090053;28;20600;-65
2023/09/24 09:02:36;;;;;;;4.75;3.42;;;15.80;99.90;;;;;;5090711;28;20055;-65
2023/09/24 09:05:09;;;;;;;7.07;3.45;;;15.80;99.90;;;;;;5090731;28;20044;-66
2023/09/24 09:07:35;;;;;;;4.55;3.30;;;16.00;99.90;;;;;;5090676;28;20047;-65
2023/09/24 09:10:03;;;;;;;9.43;4.15;;;16.10;99.90;;;;;;5090602;28;20024;-65
2023/09/24 09:12:29;;;;;;;3.50;2.80;;;16.10;99.90;;;;;;5090983;28;20024;-64
2023/09/24 09:14:55;;;;;;;7.60;3.50;;;16.20;99.90;;;;;;5090239;28;20022;-64
2023/09/24 09:17:21;;;;;;;4.93;3.42;;;16.30;99.90;;;;;;5090556;28;20051;-65
2023/09/24 09:19:52;;;;;;;5.68;3.17;;;16.40;99.90;;;;;;5091192;28;20130;-64
2023/09/24 09:22:22;;;;;;;4.72;2.90;;;16.50;99.90;;;;;;5090502;28;20036;-65
2023/09/24 09:25:09;;;;;;;7.63;3.30;;;16.60;99.90;;;;;;5089187;28;20512;-65
2023/09/24 09:27:35;;;;;;;6.60;3.15;;;16.60;99.90;;;;;;5090458;28;20036;-65
2023/09/24 09:30:16;;;;;;;5.22;3.10;;;16.70;99.90;;;;;;5092405;28;20024;-65
2023/09/24 09:32:45;;;;;;;4.82;3.10;;;16.90;99.90;;;;;;5094059;28;20028;-66
2023/09/24 09:35:12;;;;;;;5.20;3.03;;;17.00;99.90;;;;;;5094354;28;20028;-65
2023/09/24 09:37:39;;;;;;;4.82;2.80;;;17.10;99.90;;;;;;5093917;28;20597;-66
2023/09/24 09:40:09;;;;;;;7.38;3.05;;;17.20;99.90;;;;;;5093918;28;20107;-65
2023/09/24 09:42:36;;;;;;;4.38;2.85;;;17.30;99.90;;;;;;5093764;28;20103;-65
2023/09/24 09:45:09;;;;;;;4.35;3.10;;;17.40;99.90;;;;;;5093692;28;20157;-65
2023/09/24 09:47:49;;;;;;;5.65;3.03;;;17.50;99.90;;;;;;5093930;28;20020;-65
2023/09/24 09:50:20;;;;;;;4.25;2.80;;;17.60;99.90;;;;;;5092470;28;20402;-64
2023/09/24 09:52:48;;;;;;;4.63;2.95;;;17.80;99.90;;;;;;5093676;28;20028;-64
2023/09/24 09:55:14;;;;;;;4.13;3.05;;;17.80;99.90;;;;;;5093712;28;20058;-64
2023/09/24 09:57:41;;;;;;;6.28;3.03;;;17.90;99.90;;;;;;5093615;28;20024;-66
2023/09/24 10:00:09;;;;;;;5.10;2.90;;;18.00;99.90;;;;;;5093547;28;20082;-65
2023/09/24 10:02:36;;;;;;;5.90;2.88;;;18.20;99.90;;;;;;5093401;28;20099;-65
2023/09/24 10:05:03;;;;;;;6.10;2.97;;;18.30;99.90;;;;;;5094046;28;20617;-64
2023/09/24 10:07:29;;;;;;;5.63;2.80;;;18.50;99.90;;;;;;5093279;28;20169;-63
2023/09/24 10:09:54;;;;;;;4.75;2.95;;;18.70;99.90;;;;;;5093350;28;20099;-64
2023/09/24 10:12:39;;;;;;;5.80;2.78;;;18.80;99.90;;;;;;5093088;28;20024;-64
2023/09/24 10:15:31;;;;;;;6.10;3.10;;;19.00;99.90;;;;;;5093229;28;20024;-64
2023/09/24 10:18:09;;;;;;;4.43;2.75;;;19.00;99.90;;;;;;5092083;28;20036;-65
2023/09/24 10:20:50;;;;;;;3.30;2.60;;;19.00;99.90;;;;;;5093137;28;20023;-65
2023/09/24 10:23:31;;;;;;;3.55;2.70;;;19.20;99.90;;;;;;5092886;28;20046;-62
2023/09/24 10:25:59;;;;;;;3.25;2.60;;;19.20;99.90;;;;;;5092972;28;20560;-64
2023/09/24 10:28:48;;;;;;;5.13;3.00;;;19.30;99.90;;;;;;5092038;28;20036;-65
2023/09/24 10:31:14;;;;;;;5.65;3.08;;;19.40;99.90;;;;;;5091766;28;20024;-63
2023/09/24 10:33:59;;;;;;;4.28;2.53;;;19.30;99.90;;;;;;5092265;28;20107;-64
2023/09/24 10:36:33;;;;;;;4.45;2.33;;;19.40;99.90;;;;;;5092637;28;20545;-65
2023/09/24 10:39:13;;;;;;;3.60;2.60;;;19.40;99.90;;;;;;5092394;28;20024;-64
2023/09/24 10:42:10;;;;;;;7.32;3.13;;;19.40;99.90;;;;;;5091963;28;20034;-64
2023/09/24 10:44:39;;;;;;;3.10;2.30;;;19.60;99.90;;;;;;5092871;28;20464;-64
2023/09/24 10:47:25;;;;;;;4.13;2.70;;;19.70;99.90;;;;;;5092601;28;20039;-64
2023/09/24 10:50:00;;;;;;;5.13;2.70;;;19.80;99.90;;;;;;5092505;28;20028;-64
2023/09/24 10:52:26;;;;;;;4.13;2.42;;;19.80;99.90;;;;;;5092345;28;20035;-65
2023/09/24 10:54:52;;;;;;;4.68;2.20;;;19.90;99.90;;;;;;5092285;28;20028;-64
2023/09/24 10:57:24;;;;;;;5.63;2.65;;;19.90;99.90;;;;;;5091691;28;20028;-64
2023/09/24 10:59:50;;;;;;;6.20;3.13;;;20.20;99.90;;;;;;5092606;28;20091;-64
2023/09/24 11:02:20;;;;;;;8.82;3.88;;;20.50;99.90;;;;;;5091726;28;20127;-66
2023/09/24 11:04:46;;;;;;;10.68;7.57;;;20.50;99.90;;;;;;5092544;28;20044;-65
2023/09/24 11:07:12;;;;;;;20.45;16.35;;;20.60;99.90;;;;;;5092069;28;20530;-64
2023/09/24 11:09:39;;;;;;;44.38;39.53;;;20.80;99.90;;;;;;5091529;28;20447;-63
2023/09/24 11:12:10;;;;;;;46.80;40.10;;;20.90;99.90;;;;;;5091505;28;20028;-64
2023/09/24 11:14:36;;;;;;;44.67;36.67;;;20.80;99.90;;;;;;5091788;28;20027;-65
2023/09/24 11:17:02;;;;;;;37.40;25.10;;;21.00;99.90;;;;;;5092283;28;20028;-65
2023/09/24 11:19:46;;;;;;;46.40;33.45;;;21.10;99.90;;;;;;5091988;28;20035;-64
2023/09/24 11:22:22;;;;;;;46.58;28.23;;;21.20;99.90;;;;;;5091884;28;20031;-64
2023/09/24 11:25:06;;;;;;;32.75;23.85;;;21.30;99.90;;;;;;5091854;28;20123;-63
2023/09/24 11:27:44;;;;;;;24.92;16.25;;;21.30;99.90;;;;;;5092118;28;20028;-65
2023/09/24 11:30:10;;;;;;;20.00;12.60;;;21.50;99.90;;;;;;5091830;28;20069;-65
2023/09/24 11:32:36;;;;;;;8.57;5.50;;;21.50;99.90;;;;;;5092333;28;20650;-64
2023/09/24 11:35:09;;;;;;;11.23;6.20;;;21.60;99.90;;;;;;5091893;28;20012;-61
2023/09/24 11:37:56;;;;;;;8.68;5.85;;;21.80;99.90;;;;;;5091763;28;20116;-66
2023/09/24 11:40:25;;;;;;;6.90;4.95;;;21.90;99.90;;;;;;5090498;28;20093;-65
2023/09/24 11:43:11;;;;;;;6.95;4.35;;;22.20;99.90;;;;;;5091552;28;20055;-66
2023/09/24 11:45:46;;;;;;;4.97;3.63;;;22.20;99.90;;;;;;5091740;28;20386;-65
2023/09/24 11:48:19;;;;;;;7.25;3.90;;;22.30;99.90;;;;;;5091823;28;20054;-65
2023/09/24 11:50:54;;;;;;;6.18;3.40;;;22.30;99.90;;;;;;5091306;28;20028;-65
2023/09/24 11:53:21;;;;;;;5.25;3.22;;;22.50;99.90;;;;;;5090826;28;20031;-65
2023/09/24 11:55:48;;;;;;;4.75;3.05;;;22.50;99.90;;;;;;5091107;28;20016;-65
2023/09/24 11:58:17;;;;;;;4.13;3.00;;;22.60;99.90;;;;;;5091377;28;20571;-63
2023/09/24 12:00:44;;;;;;;5.90;3.08;;;22.60;99.90;;;;;;5091311;28;20161;-64
2023/09/24 12:03:10;;;;;;;5.38;3.83;;;22.70;99.90;;;;;;5091066;28;20028;-64
2023/09/24 12:05:36;;;;;;;3.70;3.13;;;22.80;99.90;;;;;;5091116;28;20443;-65
2023/09/24 12:08:04;;;;;;;5.63;3.50;;;22.80;99.90;;;;;;5089559;28;20418;-64
2023/09/24 12:10:31;;;;;;;5.85;3.00;;;22.90;99.90;;;;;;5091205;28;20028;-65
2023/09/24 12:13:01;;;;;;;7.72;3.72;;;22.90;99.90;;;;;;5091562;28;20024;-64
2023/09/24 12:15:29;;;;;;;6.03;3.33;;;22.80;99.90;;;;;;5091178;28;20393;-64
2023/09/24 12:17:56;;;;;;;5.72;3.00;;;22.70;99.90;;;;;;5090887;28;20060;-64
2023/09/24 12:20:22;;;;;;;7.85;3.75;;;22.90;99.90;;;;;;5091224;28;20119;-62
2023/09/24 12:22:49;;;;;;;5.65;3.33;;;22.80;99.90;;;;;;5090731;28;20033;-61
2023/09/24 12:25:14;;;;;;;4.25;3.40;;;22.90;99.90;;;;;;5091009;28;20040;-61
2023/09/24 12:27:41;;;;;;;5.00;2.90;;;23.00;99.90;;;;;;5090833;28;20505;-62
2023/09/24 12:30:11;;;;;;;3.78;3.10;;;23.00;99.90;;;;;;5090488;28;20035;-61
2023/09/24 12:32:38;;;;;;;6.18;3.75;;;23.10;99.90;;;;;;5090973;28;20495;-61
2023/09/24 12:35:04;;;;;;;6.60;4.53;;;23.10;99.90;;;;;;5091038;28;20394;-61
2023/09/24 12:37:32;;;;;;;5.68;4.07;;;23.10;99.90;;;;;;5090683;28;20016;-62
2023/09/24 12:39:58;;;;;;;7.05;5.40;;;23.20;99.90;;;;;;5091158;28;20055;-62
2023/09/24 12:42:31;;;;;;;5.22;3.75;;;23.30;99.90;;;;;;5090727;28;20016;-62
2023/09/24 12:45:00;;;;;;;8.88;5.35;;;23.30;99.90;;;;;;5091269;28;20093;-61
2023/09/24 12:47:28;;;;;;;6.25;4.38;;;23.40;99.90;;;;;;5090699;28;20099;-61
2023/09/24 12:49:55;;;;;;;5.75;4.35;;;23.50;99.90;;;;;;5090833;28;20028;-62